NZWN/WLG METAR and TAF weather

Enter ICAO airport designator
Station Type Date Time Source
NZWN METAR 2022/12/08 14:00 UTC NOAA

NZWN 081400Z AUTO 01006KT 9999 OVC075/// 16/10 Q1013


Station Type Date Time Source
NZWN Decoded METAR 2022/12/08 14:00 UTC NOAA

Wellington Airport, New Zealand (NZWN) 41-20S 174-48E 8M
Dec 08, 2022 - 09:00 AM EST / 2022.12.08 1400 UTC
Wind: from the N (010 degrees) at 7 MPH (6 KT):0
Visibility: greater than 7 mile(s):0
Sky conditions: overcast
Temperature: 60 F (16 C)
Dew Point: 50 F (10 C)
Relative Humidity: 67%
Pressure (altimeter): 29.91 in. Hg (1013 hPa)
ob: NZWN 081400Z AUTO 01006KT 9999 OVC075/// 16/10 Q1013
cycle: 14

Station Type Date Time Source
NZWN TAF 2022/12/08 12:12 UTC NOAA

TAF NZWN 081109Z 0812/0918 02008KT 9999 SCT040
TEMPO 0822/0904 6000 RA
TEMPO 0904/0909 4000 RADZ BKN012
TEMPO 0911/0918 4000 DZ BKN004

Example: see airport list